sensor_id;sensor_type;location;lat;lon;timestamp;pressure;altitude;pressure_sealevel;temperature;humidity
67840;BME280;54636;51.684;5.142;2023-04-01T00:01:31;99134.75;;;9.42;100.00
67840;BME280;54636;51.684;5.142;2023-04-01T00:03:56;99134.31;;;9.38;100.00
67840;BME280;54636;51.684;5.142;2023-04-01T00:06:22;99150.72;;;9.45;100.00
67840;BME280;54636;51.684;5.142;2023-04-01T00:08:48;99154.63;;;9.50;100.00
67840;BME280;54636;51.684;5.142;2023-04-01T00:11:14;99148.47;;;9.49;100.00
67840;BME280;54636;51.684;5.142;2023-04-01T00:13:40;99148.47;;;9.49;100.00
67840;BME280;54636;51.684;5.142;2023-04-01T00:16:07;99163.78;;;9.47;100.00
67840;BME280;54636;51.684;5.142;2023-04-01T00:18:33;99163.47;;;9.50;100.00
67840;BME280;54636;51.684;5.142;2023-04-01T00:20:58;99156.81;;;9.51;100.00
67840;BME280;54636;51.684;5.142;2023-04-01T00:23:23;99150.59;;;9.38;100.00
67840;BME280;54636;51.684;5.142;2023-04-01T00:25:49;99166.19;;;9.50;100.00
67840;BME280;54636;51.684;5.142;2023-04-01T00:28:16;99159.38;;;9.44;100.00
67840;BME280;54636;51.684;5.142;2023-04-01T00:30:42;99172.56;;;9.53;100.00
67840;BME280;54636;51.684;5.142;2023-04-01T00:33:08;99170.81;;;9.55;100.00
67840;BME280;54636;51.684;5.142;2023-04-01T00:35:33;99177.25;;;9.52;100.00
67840;BME280;54636;51.684;5.142;2023-04-01T00:37:59;99178.22;;;9.55;100.00
67840;BME280;54636;51.684;5.142;2023-04-01T00:40:29;99174.03;;;9.54;100.00
67840;BME280;54636;51.684;5.142;2023-04-01T00:42:56;99162.22;;;9.51;100.00
67840;BME280;54636;51.684;5.142;2023-04-01T00:45:29;99184.66;;;9.52;100.00
67840;BME280;54636;51.684;5.142;2023-04-01T00:47:56;99185.91;;;9.51;100.00
67840;BME280;54636;51.684;5.142;2023-04-01T00:50:24;99189.13;;;9.49;100.00
67840;BME280;54636;51.684;5.142;2023-04-01T00:52:50;99185.97;;;9.45;100.00
67840;BME280;54636;51.684;5.142;2023-04-01T00:55:18;99201.19;;;9.48;100.00
67840;BME280;54636;51.684;5.142;2023-04-01T00:57:45;99199.66;;;9.53;100.00
67840;BME280;54636;51.684;5.142;2023-04-01T01:00:14;99199.97;;;9.49;100.00
67840;BME280;54636;51.684;5.142;2023-04-01T01:02:45;99194.97;;;9.53;100.00
67840;BME280;54636;51.684;5.142;2023-04-01T01:05:13;99191.44;;;9.40;100.00
67840;BME280;54636;51.684;5.142;2023-04-01T01:07:46;99199.81;;;9.42;100.00
67840;BME280;54636;51.684;5.142;2023-04-01T01:10:40;99208.66;;;9.42;100.00
67840;BME280;54636;51.684;5.142;2023-04-01T01:15:57;99217.38;;;9.35;100.00
67840;BME280;54636;51.684;5.142;2023-04-01T01:18:38;99206.97;;;9.39;100.00
67840;BME280;54636;51.684;5.142;2023-04-01T01:35:15;99210.44;;;9.15;100.00
67840;BME280;54636;51.684;5.142;2023-04-01T01:37:42;99211.75;;;9.09;100.00
67840;BME280;54636;51.684;5.142;2023-04-01T01:40:11;99212.50;;;9.09;100.00
67840;BME280;54636;51.684;5.142;2023-04-01T01:42:39;99220.63;;;9.09;100.00
67840;BME280;54636;51.684;5.142;2023-04-01T01:45:07;99222.78;;;9.11;100.00
67840;BME280;54636;51.684;5.142;2023-04-01T01:47:35;99215.47;;;9.06;100.00
67840;BME280;54636;51.684;5.142;2023-04-01T01:50:01;99222.88;;;9.05;100.00
67840;BME280;54636;51.684;5.142;2023-04-01T01:52:28;99212.38;;;8.96;100.00
67840;BME280;54636;51.684;5.142;2023-04-01T01:54:56;99219.03;;;8.95;100.00
67840;BME280;54636;51.684;5.142;2023-04-01T01:57:28;99226.66;;;8.97;100.00
67840;BME280;54636;51.684;5.142;2023-04-01T01:59:59;99223.66;;;9.00;100.00
67840;BME280;54636;51.684;5.142;2023-04-01T02:02:28;99228.84;;;8.98;100.00
67840;BME280;54636;51.684;5.142;2023-04-01T02:04:56;99224.97;;;8.94;100.00
67840;BME280;54636;51.684;5.142;2023-04-01T02:07:29;99224.97;;;8.94;100.00
67840;BME280;54636;51.684;5.142;2023-04-01T02:09:56;99244.88;;;8.96;100.00
67840;BME280;54636;51.684;5.142;2023-04-01T02:12:23;99235.06;;;8.93;100.00
67840;BME280;54636;51.684;5.142;2023-04-01T02:14:53;99239.91;;;9.00;100.00
67840;BME280;54636;51.684;5.142;2023-04-01T02:17:22;99248.81;;;8.95;100.00
67840;BME280;54636;51.684;5.142;2023-04-01T02:19:57;99253.28;;;8.93;100.00
67840;BME280;54636;51.684;5.142;2023-04-01T02:22:28;99241.47;;;8.90;100.00
67840;BME280;54636;51.684;5.142;2023-04-01T02:24:59;99250.09;;;8.88;100.00
67840;BME280;54636;51.684;5.142;2023-04-01T02:27:28;99243.00;;;8.85;100.00
67840;BME280;54636;51.684;5.142;2023-04-01T02:29:53;99248.59;;;8.93;100.00
67840;BME280;54636;51.684;5.142;2023-04-01T02:32:20;99247.84;;;8.93;100.00
67840;BME280;54636;51.684;5.142;2023-04-01T02:34:46;99247.16;;;8.86;100.00
67840;BME280;54636;51.684;5.142;2023-04-01T02:37:13;99253.31;;;8.87;100.00
67840;BME280;54636;51.684;5.142;2023-04-01T02:39:39;99260.47;;;8.84;100.00
67840;BME280;54636;51.684;5.142;2023-04-01T02:42:05;99255.06;;;8.84;100.00
67840;BME280;54636;51.684;5.142;2023-04-01T02:44:31;99257.09;;;8.78;100.00
67840;BME280;54636;51.684;5.142;2023-04-01T02:46:56;99261.94;;;8.85;100.00
67840;BME280;54636;51.684;5.142;2023-04-01T02:49:22;99260.72;;;8.86;100.00
67840;BME280;54636;51.684;5.142;2023-04-01T02:51:47;99266.91;;;8.81;100.00
67840;BME280;54636;51.684;5.142;2023-04-01T02:54:12;99255.16;;;8.73;100.00
67840;BME280;54636;51.684;5.142;2023-04-01T02:56:38;99265.03;;;8.71;100.00
67840;BME280;54636;51.684;5.142;2023-04-01T02:59:03;99250.78;;;8.65;100.00
67840;BME280;54636;51.684;5.142;2023-04-01T03:01:29;99279.72;;;8.81;100.00
67840;BME280;54636;51.684;5.142;2023-04-01T03:03:54;99271.13;;;8.77;100.00
67840;BME280;54636;51.684;5.142;2023-04-01T03:06:20;99270.66;;;8.73;100.00
67840;BME280;54636;51.684;5.142;2023-04-01T03:08:45;99271.63;;;8.75;100.00
67840;BME280;54636;51.684;5.142;2023-04-01T03:11:11;99281.44;;;8.78;100.00
67840;BME280;54636;51.684;5.142;2023-04-01T03:13:36;99278.06;;;8.72;100.00
67840;BME280;54636;51.684;5.142;2023-04-01T03:16:02;99287.91;;;8.70;100.00
67840;BME280;54636;51.684;5.142;2023-04-01T03:18:28;99286.19;;;8.72;100.00
67840;BME280;54636;51.684;5.142;2023-04-01T03:20:53;99282.22;;;8.73;100.00
67840;BME280;54636;51.684;5.142;2023-04-01T03:23:19;99292.50;;;8.80;100.00
67840;BME280;54636;51.684;5.142;2023-04-01T03:25:49;99293.31;;;8.70;100.00
67840;BME280;54636;51.684;5.142;2023-04-01T03:28:15;99298.78;;;8.64;100.00
67840;BME280;54636;51.684;5.142;2023-04-01T03:30:40;99302.88;;;8.76;100.00
67840;BME280;54636;51.684;5.142;2023-04-01T03:33:06;99292.63;;;8.64;100.00
67840;BME280;54636;51.684;5.142;2023-04-01T03:35:31;99299.25;;;8.68;100.00
67840;BME280;54636;51.684;5.142;2023-04-01T03:37:57;99298.78;;;8.64;100.00
67840;BME280;54636;51.684;5.142;2023-04-01T03:40:22;99307.88;;;8.67;100.00
67840;BME280;54636;51.684;5.142;2023-04-01T03:42:49;99307.88;;;8.67;100.00
67840;BME280;54636;51.684;5.142;2023-04-01T03:45:15;99301.69;;;8.72;100.00
67840;BME280;54636;51.684;5.142;2023-04-01T03:47:40;99310.81;;;8.69;100.00
67840;BME280;54636;51.684;5.142;2023-04-01T03:50:07;99314.31;;;8.58;100.00
67840;BME280;54636;51.684;5.142;2023-04-01T03:52:33;99312.13;;;8.56;100.00
67840;BME280;54636;51.684;5.142;2023-04-01T03:55:00;99321.91;;;8.65;100.00
67840;BME280;54636;51.684;5.142;2023-04-01T03:57:26;99319.72;;;8.58;100.00
67840;BME280;54636;51.684;5.142;2023-04-01T03:59:52;99331.56;;;8.55;100.00
67840;BME280;54636;51.684;5.142;2023-04-01T04:02:17;99320.75;;;8.55;100.00
67840;BME280;54636;51.684;5.142;2023-04-01T04:04:42;99324.41;;;8.57;100.00
67840;BME280;54636;51.684;5.142;2023-04-01T04:07:08;99319.03;;;8.52;100.00
67840;BME280;54636;51.684;5.142;2023-04-01T04:09:33;99335.75;;;8.56;100.00
67840;BME280;54636;51.684;5.142;2023-04-01T04:11:59;99338.69;;;8.58;100.00
67840;BME280;54636;51.684;5.142;2023-04-01T04:14:25;99340.69;;;8.52;100.00
67840;BME280;54636;51.684;5.142;2023-04-01T04:16:51;99333.81;;;8.51;100.00
67840;BME280;54636;51.684;5.142;2023-04-01T04:19:16;99346.59;;;8.50;100.00
67840;BME280;54636;51.684;5.142;2023-04-01T04:21:42;99340.19;;;8.53;100.00
67840;BME280;54636;51.684;5.142;2023-04-01T04:24:08;99350.75;;;8.57;100.00
67840;BME280;54636;51.684;5.142;2023-04-01T04:26:33;99318.66;;;8.31;100.00
67840;BME280;54636;51.684;5.142;2023-04-01T04:28:59;99345.31;;;8.57;100.00
67840;BME280;54636;51.684;5.142;2023-04-01T04:31:25;99358.84;;;8.57;100.00
67840;BME280;54636;51.684;5.142;2023-04-01T04:33:51;99369.94;;;8.53;100.00
67840;BME280;54636;51.684;5.142;2023-04-01T04:36:18;99364.81;;;8.50;100.00
67840;BME280;54636;51.684;5.142;2023-04-01T04:38:44;99363.56;;;8.51;100.00
67840;BME280;54636;51.684;5.142;2023-04-01T04:41:10;99374.38;;;8.56;100.00
67840;BME280;54636;51.684;5.142;2023-04-01T04:43:37;99357.25;;;8.43;100.00
67840;BME280;54636;51.684;5.142;2023-04-01T04:46:08;99377.81;;;8.57;100.00
67840;BME280;54636;51.684;5.142;2023-04-01T04:48:34;99379.28;;;8.58;100.00
67840;BME280;54636;51.684;5.142;2023-04-01T04:51:00;99387.63;;;8.60;100.00
67840;BME280;54636;51.684;5.142;2023-04-01T04:53:25;99389.34;;;8.63;100.00
67840;BME280;54636;51.684;5.142;2023-04-01T04:55:51;99387.88;;;8.62;100.00
67840;BME280;54636;51.684;5.142;2023-04-01T04:58:17;99403.09;;;8.65;100.00
67840;BME280;54636;51.684;5.142;2023-04-01T05:00:43;99407.03;;;8.64;100.00
67840;BME280;54636;51.684;5.142;2023-04-01T05:03:09;99407.31;;;8.61;100.00
67840;BME280;54636;51.684;5.142;2023-04-01T05:05:34;99412.94;;;8.68;100.00
67840;BME280;54636;51.684;5.142;2023-04-01T05:07:59;99411.72;;;8.64;100.00
67840;BME280;54636;51.684;5.142;2023-04-01T05:10:25;99411.50;;;8.62;100.00
67840;BME280;54636;51.684;5.142;2023-04-01T05:12:50;99418.84;;;8.67;100.00
67840;BME280;54636;51.684;5.142;2023-04-01T05:15:16;99417.59;;;8.68;100.00
67840;BME280;54636;51.684;5.142;2023-04-01T05:17:41;99424.75;;;8.65;100.00
67840;BME280;54636;51.684;5.142;2023-04-01T05:20:07;99429.19;;;8.63;100.00
67840;BME280;54636;51.684;5.142;2023-04-01T05:22:33;99434.78;;;8.76;100.00
67840;BME280;54636;51.684;5.142;2023-04-01T05:24:59;99429.91;;;8.69;100.00
67840;BME280;54636;51.684;5.142;2023-04-01T05:27:24;99443.38;;;8.80;100.00
67840;BME280;54636;51.684;5.142;2023-04-01T05:29:49;99433.81;;;8.73;100.00
67840;BME280;54636;51.684;5.142;2023-04-01T05:32:15;99438.72;;;8.75;100.00
67840;BME280;54636;51.684;5.142;2023-04-01T05:34:40;99457.16;;;8.82;100.00
67840;BME280;54636;51.684;5.142;2023-04-01T05:37:06;99445.38;;;8.74;100.00
67840;BME280;54636;51.684;5.142;2023-04-01T05:39:36;99453.22;;;8.83;100.00
67840;BME280;54636;51.684;5.142;2023-04-01T05:42:02;99465.75;;;8.86;100.00
67840;BME280;54636;51.684;5.142;2023-04-01T05:44:27;99467.22;;;8.87;100.00
67840;BME280;54636;51.684;5.142;2023-04-01T05:46:53;99466.97;;;8.90;100.00
67840;BME280;54636;51.684;5.142;2023-04-01T05:49:18;99468.66;;;8.94;100.00
67840;BME280;54636;51.684;5.142;2023-04-01T05:51:43;99477.03;;;8.96;100.00
67840;BME280;54636;51.684;5.142;2023-04-01T05:54:09;99478.22;;;9.00;100.00
67840;BME280;54636;51.684;5.142;2023-04-01T05:56:34;99473.09;;;8.91;100.00
67840;BME280;54636;51.684;5.142;2023-04-01T05:59:00;99477.53;;;8.94;100.00
67840;BME280;54636;51.684;5.142;2023-04-01T06:01:25;99478.78;;;8.87;100.00
67840;BME280;54636;51.684;5.142;2023-04-01T06:03:51;99499.44;;;8.96;100.00
67840;BME280;54636;51.684;5.142;2023-04-01T06:06:27;99494.78;;;8.91;100.00
67840;BME280;54636;51.684;5.142;2023-04-01T06:08:53;99514.44;;;8.97;100.00
67840;BME280;54636;51.684;5.142;2023-04-01T06:16:54;99518.81;;;9.06;100.00
67840;BME280;54636;51.684;5.142;2023-04-01T06:20:11;99527.47;;;9.04;100.00
67840;BME280;54636;51.684;5.142;2023-04-01T06:34:14;99555.69;;;9.14;100.00
67840;BME280;54636;51.684;5.142;2023-04-01T06:48:20;99570.44;;;9.24;100.00
67840;BME280;54636;51.684;5.142;2023-04-01T06:54:17;99578.06;;;9.20;100.00
67840;BME280;54636;51.684;5.142;2023-04-01T06:56:49;99583.28;;;9.13;100.00
67840;BME280;54636;51.684;5.142;2023-04-01T06:59:21;99586.72;;;9.13;100.00
67840;BME280;54636;51.684;5.142;2023-04-01T07:02:05;99589.88;;;9.23;100.00
67840;BME280;54636;51.684;5.142;2023-04-01T07:04:44;99583.03;;;9.16;100.00
67840;BME280;54636;51.684;5.142;2023-04-01T07:09:59;99587.09;;;9.40;100.00
67840;BME280;54636;51.684;5.142;2023-04-01T07:14:58;99596.91;;;9.48;100.00
67840;BME280;54636;51.684;5.142;2023-04-01T07:17:32;99615.31;;;9.61;100.00
67840;BME280;54636;51.684;5.142;2023-04-01T07:20:13;99606.19;;;9.64;100.00
67840;BME280;54636;51.684;5.142;2023-04-01T07:22:45;99620.91;;;9.74;100.00
67840;BME280;54636;51.684;5.142;2023-04-01T07:25:18;99610.81;;;9.69;100.00
67840;BME280;54636;51.684;5.142;2023-04-01T07:27:45;99629.44;;;9.84;100.00
67840;BME280;54636;51.684;5.142;2023-04-01T07:30:20;99631.66;;;9.85;100.00
67840;BME280;54636;51.684;5.142;2023-04-01T07:33:11;99642.50;;;9.85;100.00
67840;BME280;54636;51.684;5.142;2023-04-01T07:35:46;99629.91;;;9.88;100.00
67840;BME280;54636;51.684;5.142;2023-04-01T07:49:12;99653.47;;;10.04;100.00
67840;BME280;54636;51.684;5.142;2023-04-01T07:54:32;99661.06;;;10.11;100.00
67840;BME280;54636;51.684;5.142;2023-04-01T07:57:11;99657.56;;;10.22;100.00
67840;BME280;54636;51.684;5.142;2023-04-01T08:02:24;99671.94;;;10.11;100.00
67840;BME280;54636;51.684;5.142;2023-04-01T08:05:14;99685.50;;;10.11;100.00
67840;BME280;54636;51.684;5.142;2023-04-01T08:07:52;99689.91;;;10.14;100.00
67840;BME280;54636;51.684;5.142;2023-04-01T08:10:29;99686.44;;;10.19;100.00
67840;BME280;54636;51.684;5.142;2023-04-01T08:21:28;99711.38;;;10.12;100.00
67840;BME280;54636;51.684;5.142;2023-04-01T08:23:57;99717.28;;;10.16;100.00
67840;BME280;54636;51.684;5.142;2023-04-01T08:28:56;99718.00;;;10.17;100.00
67840;BME280;54636;51.684;5.142;2023-04-01T08:31:45;99723.44;;;10.17;100.00
67840;BME280;54636;51.684;5.142;2023-04-01T08:34:17;99724.22;;;10.12;100.00
67840;BME280;54636;51.684;5.142;2023-04-01T08:37:00;99716.34;;;10.08;100.00
67840;BME280;54636;51.684;5.142;2023-04-01T08:39:32;99741.19;;;10.23;100.00
67840;BME280;54636;51.684;5.142;2023-04-01T08:53:06;99739.09;;;9.94;100.00
67840;BME280;54636;51.684;5.142;2023-04-01T08:56:01;99757.84;;;9.98;100.00
67840;BME280;54636;51.684;5.142;2023-04-01T09:06:52;99761.06;;;9.90;100.00
67840;BME280;54636;51.684;5.142;2023-04-01T09:20:42;99783.59;;;10.27;100.00
67840;BME280;54636;51.684;5.142;2023-04-01T09:31:25;99794.28;;;10.84;100.00
67840;BME280;54636;51.684;5.142;2023-04-01T09:36:45;99803.84;;;10.97;100.00
67840;BME280;54636;51.684;5.142;2023-04-01T09:42:23;99807.66;;;11.07;100.00
67840;BME280;54636;51.684;5.142;2023-04-01T09:45:06;99811.75;;;10.95;100.00
67840;BME280;54636;51.684;5.142;2023-04-01T09:52:52;99821.09;;;10.99;100.00
67840;BME280;54636;51.684;5.142;2023-04-01T10:26:15;99840.94;;;11.92;100.00
67840;BME280;54636;51.684;5.142;2023-04-01T10:32:08;99864.84;;;11.74;100.00
67840;BME280;54636;51.684;5.142;2023-04-01T10:46:21;99865.03;;;11.58;100.00
67840;BME280;54636;51.684;5.142;2023-04-01T10:55:09;99867.69;;;11.63;100.00
67840;BME280;54636;51.684;5.142;2023-04-01T10:57:40;99870.94;;;11.62;100.00
67840;BME280;54636;51.684;5.142;2023-04-01T11:06:30;99878.47;;;11.20;100.00
67840;BME280;54636;51.684;5.142;2023-04-01T11:09:13;99879.28;;;11.09;100.00
67840;BME280;54636;51.684;5.142;2023-04-01T11:20:31;99894.03;;;10.89;100.00
67840;BME280;54636;51.684;5.142;2023-04-01T11:23:22;99899.47;;;10.89;100.00
67840;BME280;54636;51.684;5.142;2023-04-01T11:26:02;99895.19;;;11.00;100.00
67840;BME280;54636;51.684;5.142;2023-04-01T11:34:01;99911.41;;;11.11;100.00
67840;BME280;54636;51.684;5.142;2023-04-01T11:36:58;99907.72;;;11.08;100.00
67840;BME280;54636;51.684;5.142;2023-04-01T11:42:28;99908.69;;;11.11;100.00
67840;BME280;54636;51.684;5.142;2023-04-01T11:45:24;99923.19;;;11.19;100.00
67840;BME280;54636;51.684;5.142;2023-04-01T12:10:19;99958.69;;;11.32;100.00
67840;BME280;54636;51.684;5.142;2023-04-01T12:13:01;99950.63;;;11.21;100.00
67840;BME280;54636;51.684;5.142;2023-04-01T12:20:57;99964.63;;;11.31;100.00
67840;BME280;54636;51.684;5.142;2023-04-01T12:40:31;99990.38;;;11.24;100.00
67840;BME280;54636;51.684;5.142;2023-04-01T12:43:23;99972.44;;;11.10;100.00
67840;BME280;54636;51.684;5.142;2023-04-01T12:51:53;99998.94;;;11.04;100.00
67840;BME280;54636;51.684;5.142;2023-04-01T13:00:33;100002.66;;;11.01;100.00
67840;BME280;54636;51.684;5.142;2023-04-01T13:11:25;100015.97;;;11.04;100.00
67840;BME280;54636;51.684;5.142;2023-04-01T13:17:02;100036.09;;;11.26;100.00
67840;BME280;54636;51.684;5.142;2023-04-01T13:19:42;100031.16;;;11.24;100.00
67840;BME280;54636;51.684;5.142;2023-04-01T13:22:19;100035.13;;;11.23;100.00
67840;BME280;54636;51.684;5.142;2023-04-01T13:25:01;100027.16;;;11.31;100.00
67840;BME280;54636;51.684;5.142;2023-04-01T13:30:21;100036.13;;;11.61;100.00
67840;BME280;54636;51.684;5.142;2023-04-01T13:41:01;100054.19;;;11.59;100.00
67840;BME280;54636;51.684;5.142;2023-04-01T13:43:39;100066.41;;;11.41;100.00
67840;BME280;54636;51.684;5.142;2023-04-01T13:59:36;100074.38;;;11.69;100.00
67840;BME280;54636;51.684;5.142;2023-04-01T14:13:43;100075.97;;;11.06;100.00
67840;BME280;54636;51.684;5.142;2023-04-01T14:16:27;100087.66;;;10.90;100.00
67840;BME280;54636;51.684;5.142;2023-04-01T14:19:39;100094.88;;;10.71;100.00
67840;BME280;54636;51.684;5.142;2023-04-01T14:28:10;100092.13;;;10.82;100.00
67840;BME280;54636;51.684;5.142;2023-04-01T14:30:59;100105.25;;;10.78;100.00
67840;BME280;54636;51.684;5.142;2023-04-01T14:43:00;100100.31;;;10.76;100.00
67840;BME280;54636;51.684;5.142;2023-04-01T14:45:50;100127.09;;;11.08;100.00
67840;BME280;54636;51.684;5.142;2023-04-01T14:50:53;100122.00;;;10.93;100.00
67840;BME280;54636;51.684;5.142;2023-04-01T14:55:52;100139.78;;;10.88;100.00
67840;BME280;54636;51.684;5.142;2023-04-01T14:58:20;100135.38;;;10.74;100.00
67840;BME280;54636;51.684;5.142;2023-04-01T15:03:38;100119.31;;;10.71;100.00
67840;BME280;54636;51.684;5.142;2023-04-01T15:08:51;100126.75;;;10.59;100.00
67840;BME280;54636;51.684;5.142;2023-04-01T15:22:47;100168.22;;;10.60;100.00
67840;BME280;54636;51.684;5.142;2023-04-01T15:31:15;100159.13;;;10.35;100.00
67840;BME280;54636;51.684;5.142;2023-04-01T15:36:35;100171.22;;;10.39;100.00
67840;BME280;54636;51.684;5.142;2023-04-01T15:46:58;100163.03;;;10.11;100.00
67840;BME280;54636;51.684;5.142;2023-04-01T15:49:43;100189.50;;;10.28;100.00
67840;BME280;54636;51.684;5.142;2023-04-01T15:55:25;100191.94;;;10.20;100.00
67840;BME280;54636;51.684;5.142;2023-04-01T16:11:39;100219.34;;;10.22;100.00
67840;BME280;54636;51.684;5.142;2023-04-01T16:14:29;100225.03;;;10.30;100.00
67840;BME280;54636;51.684;5.142;2023-04-01T16:17:09;100223.06;;;10.30;100.00
67840;BME280;54636;51.684;5.142;2023-04-01T16:19:53;100177.56;;;9.91;100.00
67840;BME280;54636;51.684;5.142;2023-04-01T16:22:28;100209.66;;;10.10;100.00
67840;BME280;54636;51.684;5.142;2023-04-01T16:25:14;100217.56;;;10.13;100.00
67840;BME280;54636;51.684;5.142;2023-04-01T16:28:24;100249.44;;;10.30;100.00
67840;BME280;54636;51.684;5.142;2023-04-01T16:34:11;100259.78;;;10.20;100.00
67840;BME280;54636;51.684;5.142;2023-04-01T16:36:52;100263.25;;;10.20;100.00
67840;BME280;54636;51.684;5.142;2023-04-01T16:47:30;100282.19;;;10.09;100.00
67840;BME280;54636;51.684;5.142;2023-04-01T16:53:00;100281.66;;;9.94;100.00
67840;BME280;54636;51.684;5.142;2023-04-01T17:01:32;100286.59;;;9.96;100.00
67840;BME280;54636;51.684;5.142;2023-04-01T17:07:36;100321.88;;;10.01;100.00
67840;BME280;54636;51.684;5.142;2023-04-01T17:18:23;100335.09;;;9.77;100.00
67840;BME280;54636;51.684;5.142;2023-04-01T17:21:02;100297.19;;;9.40;100.00
67840;BME280;54636;51.684;5.142;2023-04-01T17:23:47;100351.56;;;9.68;100.00
67840;BME280;54636;51.684;5.142;2023-04-01T17:26:39;100359.72;;;9.68;100.00
67840;BME280;54636;51.684;5.142;2023-04-01T17:37:50;100361.06;;;9.46;100.00
67840;BME280;54636;51.684;5.142;2023-04-01T17:45:48;100401.25;;;9.48;100.00
67840;BME280;54636;51.684;5.142;2023-04-01T17:48:17;100405.38;;;9.43;100.00
67840;BME280;54636;51.684;5.142;2023-04-01T17:50:59;100397.44;;;9.34;100.00
67840;BME280;54636;51.684;5.142;2023-04-01T18:10:09;100450.28;;;9.18;100.00
67840;BME280;54636;51.684;5.142;2023-04-01T18:18:16;100481.72;;;9.10;100.00
67840;BME280;54636;51.684;5.142;2023-04-01T18:26:43;100489.00;;;8.99;100.00
67840;BME280;54636;51.684;5.142;2023-04-01T18:29:24;100502.09;;;9.00;100.00
67840;BME280;54636;51.684;5.142;2023-04-01T18:32:06;100503.31;;;8.99;100.00
67840;BME280;54636;51.684;5.142;2023-04-01T18:37:19;100525.38;;;8.92;100.00
67840;BME280;54636;51.684;5.142;2023-04-01T18:39:52;100528.78;;;8.87;100.00
67840;BME280;54636;51.684;5.142;2023-04-01T18:43:16;100532.09;;;8.76;100.00
67840;BME280;54636;51.684;5.142;2023-04-01T18:45:26;100552.13;;;8.84;100.00
67840;BME280;54636;51.684;5.142;2023-04-01T18:48:46;100548.88;;;8.80;100.00
67840;BME280;54636;51.684;5.142;2023-04-01T18:50:55;100554.78;;;8.79;100.00
67840;BME280;54636;51.684;5.142;2023-04-01T18:56:06;100569.66;;;8.69;100.00
67840;BME280;54636;51.684;5.142;2023-04-01T18:58:48;100557.56;;;8.49;100.00
67840;BME280;54636;51.684;5.142;2023-04-01T19:01:37;100578.25;;;8.67;100.00
67840;BME280;54636;51.684;5.142;2023-04-01T19:06:44;100588.72;;;8.59;100.00
67840;BME280;54636;51.684;5.142;2023-04-01T19:09:19;100603.88;;;8.51;100.00
67840;BME280;54636;51.684;5.142;2023-04-01T19:14:41;100610.84;;;8.58;100.00
67840;BME280;54636;51.684;5.142;2023-04-01T19:17:20;100603.13;;;8.51;100.00
67840;BME280;54636;51.684;5.142;2023-04-01T19:20:01;100607.19;;;8.41;100.00
67840;BME280;54636;51.684;5.142;2023-04-01T19:22:45;100603.47;;;8.38;100.00
67840;BME280;54636;51.684;5.142;2023-04-01T19:25:35;100622.72;;;8.46;100.00
67840;BME280;54636;51.684;5.142;2023-04-01T19:28:15;100638.31;;;8.51;100.00
67840;BME280;54636;51.684;5.142;2023-04-01T19:33:46;100651.56;;;8.49;100.00
67840;BME280;54636;51.684;5.142;2023-04-01T19:36:24;100652.31;;;8.49;100.00
67840;BME280;54636;51.684;5.142;2023-04-01T19:39:09;100680.81;;;8.45;100.00
67840;BME280;54636;51.684;5.142;2023-04-01T19:46:56;100664.09;;;8.32;100.00
67840;BME280;54636;51.684;5.142;2023-04-01T19:50:09;100681.38;;;8.34;100.00
67840;BME280;54636;51.684;5.142;2023-04-01T19:52:41;100678.28;;;8.26;100.00
67840;BME280;54636;51.684;5.142;2023-04-01T19:58:31;100694.88;;;8.19;100.00
67840;BME280;54636;51.684;5.142;2023-04-01T20:00:59;100689.66;;;8.01;100.00
67840;BME280;54636;51.684;5.142;2023-04-01T20:08:55;100733.59;;;8.11;100.00
67840;BME280;54636;51.684;5.142;2023-04-01T20:11:32;100737.50;;;8.10;100.00
67840;BME280;54636;51.684;5.142;2023-04-01T20:14:13;100723.03;;;7.98;100.00
67840;BME280;54636;51.684;5.142;2023-04-01T20:19:26;100746.72;;;8.03;100.00
67840;BME280;54636;51.684;5.142;2023-04-01T20:21:56;100746.44;;;8.01;100.00
67840;BME280;54636;51.684;5.142;2023-04-01T20:24:29;100750.19;;;8.04;100.00
67840;BME280;54636;51.684;5.142;2023-04-01T20:27:03;100770.91;;;8.07;100.00
67840;BME280;54636;51.684;5.142;2023-04-01T20:29:56;100762.31;;;8.08;100.00
67840;BME280;54636;51.684;5.142;2023-04-01T20:32:49;100762.38;;;7.99;100.00
67840;BME280;54636;51.684;5.142;2023-04-01T20:44:32;100788.56;;;7.93;100.00
67840;BME280;54636;51.684;5.142;2023-04-01T20:53:12;100826.91;;;7.91;100.00
67840;BME280;54636;51.684;5.142;2023-04-01T21:04:04;100839.78;;;7.97;100.00
67840;BME280;54636;51.684;5.142;2023-04-01T21:06:44;100846.91;;;7.85;100.00
67840;BME280;54636;51.684;5.142;2023-04-01T21:09:43;100835.16;;;7.73;100.00
67840;BME280;54636;51.684;5.142;2023-04-01T21:12:32;100853.00;;;7.80;100.00
67840;BME280;54636;51.684;5.142;2023-04-01T21:15:27;100867.59;;;7.73;100.00
67840;BME280;54636;51.684;5.142;2023-04-01T21:20:44;100873.00;;;7.73;100.00
67840;BME280;54636;51.684;5.142;2023-04-01T21:37:27;100913.97;;;7.39;100.00
67840;BME280;54636;51.684;5.142;2023-04-01T21:45:48;100941.78;;;7.21;100.00
67840;BME280;54636;51.684;5.142;2023-04-01T22:13:27;100967.50;;;6.80;100.00
67840;BME280;54636;51.684;5.142;2023-04-01T22:18:51;100975.00;;;6.76;100.00
67840;BME280;54636;51.684;5.142;2023-04-01T22:29:21;101011.59;;;6.86;100.00
67840;BME280;54636;51.684;5.142;2023-04-01T22:31:56;100986.22;;;6.56;100.00
67840;BME280;54636;51.684;5.142;2023-04-01T22:34:42;101022.09;;;6.75;100.00
67840;BME280;54636;51.684;5.142;2023-04-01T22:37:23;101027.63;;;6.71;100.00
67840;BME280;54636;51.684;5.142;2023-04-01T22:40:23;101035.25;;;6.64;100.00
67840;BME280;54636;51.684;5.142;2023-04-01T22:42:57;101018.31;;;6.45;100.00
67840;BME280;54636;51.684;5.142;2023-04-01T22:50:56;101032.97;;;6.35;100.00
67840;BME280;54636;51.684;5.142;2023-04-01T22:53:46;101057.13;;;6.47;100.00
67840;BME280;54636;51.684;5.142;2023-04-01T22:56:32;101057.13;;;6.47;100.00
67840;BME280;54636;51.684;5.142;2023-04-01T23:01:44;101067.72;;;6.33;100.00